Terminal Aerodrome Forecast
Issued by NWS

Home | Current Version | Previous Version | Text Only | Print | Product List | Glossary On
Versions: 1 2 3 4 5 6 7 8 9 10 11 12 13 14 15 16 17 18 19 20 21 22 23
000
FTUS44 KMAF 312332 AAA
TAFHOB
TAF AMD
KHOB 312332Z 0100/0124 13010KT P6SM BKN080 BKN130
      TEMPO 0100/0102 VRB15G25KT 6SM TSRA BKN070CB
     FM010200 09006KT P6SM SCT070 OVC200
     FM011200 01010KT P6SM FEW060 OVC070
     FM011900 36007KT P6SM SCT024 OVC040=

USA.gov is the U.S. government's official web portal to all federal, state and local government web resources and services.